Startpagina
METAR-TAF:

METAR-TAF

Vliegvelden :

Iqaluit, Nunavut, Canada

Luchthaven Iqaluit

breedte: 63-45N, lengte: 068-33W, hoogte: 34 m

Actueel weer

Dit bericht is 24 minuten geleden gemaakt, om 09:19 UTC
Wind 4 kt uit het noordwesten
Temperatuur 8°C
Vochtigheid 93%
Druk 1010 hPa
Zicht: 32.2 km
Weinig wolken op 1200 ft
Gebroken wolken op 4200 ft
mist in de omgeving

METAR: CYFB 170919Z 31004KT 20SM VCFG FEW012 BKN042 08/07 A2983 RMK SF2SC5 VIS SW LWR SLP103

Tijdstip: 05:43 (09:43 UTC)

Verwachting

Dit bericht is 4 uur en het 4 minuten geleden gemaakt, om 05:39 UTC
Verwachting geldig van 17 om 06 UTC tot 18 om 06 UTC
Wind 10 kt uit het noordwesten
Zicht: 10 km
Gebroken wolken op 4000 ft
Tijdelijke
van 17 om 06 UTC tot 17 om 24 UTC
Zicht: 10 km
Gebroken wolken op 2000 ft
lichte regen
Van 18 om 0000 UTC
Wind 10 kt uit het noordwesten
Zicht: 10 km
Verspreide wolken op 4000 ft

TAF: CYFB 170539Z 1706/1806 32010KT P6SM BKN040 TEMPO 1706/1724 P6SM -RA BKN020 FM180000 31010KT P6SM SCT040 RMK NXT FCST BY 171200Z

Waarnemingen en weersverwachtingen van meer dan 4000 vliegvelden (METAR en TAF).

De beschikbare stations zijn de gele en rode punten op de kaart.

Ga met uw muis naar het station om de naam te zien.

Klik dan om waarnemingen en weersverwachtingen te zien.

kaart wijzigen: klik op de groene knoppen met een zwart kruis om in te zoomen, op de groene knop met een streepje om uit te zoomen of op de groene pijlen voor aangrenzende kaarten.


METAR-TAF: